createdAt,value
2018-11-11T00:00:22.587Z,100238.42
2018-11-11T00:02:51.463Z,100244.02
2018-11-11T00:05:19.318Z,100253.39
2018-11-11T00:07:47.052Z,100250.59
2018-11-11T00:10:14.842Z,100251.22
2018-11-11T00:12:42.886Z,100253.52
2018-11-11T00:15:12.477Z,100248.30
2018-11-11T00:17:41.113Z,100250.69
2018-11-11T00:20:10.181Z,100255.13
2018-11-11T00:22:38.386Z,100249.52
2018-11-11T00:25:06.663Z,100247.68
2018-11-11T00:27:34.939Z,100250.86
2018-11-11T00:30:02.875Z,100247.40
2018-11-11T00:32:30.674Z,100248.23
2018-11-11T00:34:58.390Z,100256.91
2018-11-11T00:37:26.123Z,100249.59
2018-11-11T00:39:53.850Z,100250.59
2018-11-11T00:42:21.606Z,100248.61
2018-11-11T00:44:49.371Z,100248.56
2018-11-11T00:47:17.110Z,100245.56
2018-11-11T00:49:44.817Z,100250.11
2018-11-11T00:52:12.534Z,100248.95
2018-11-11T00:54:40.253Z,100242.56
2018-11-11T00:57:08.397Z,100244.27
2018-11-11T00:59:36.162Z,100249.63
2018-11-11T01:02:04.003Z,100245.48
2018-11-11T01:04:31.760Z,100249.97
2018-11-11T01:06:59.506Z,100251.75
2018-11-11T01:09:27.263Z,100247.70
2018-11-11T01:11:55.041Z,100246.42
2018-11-11T01:14:22.774Z,100241.14
2018-11-11T01:16:50.525Z,100240.64
2018-11-11T01:19:18.262Z,100240.79
2018-11-11T01:21:45.980Z,100243.98
2018-11-11T01:24:13.738Z,100245.17
2018-11-11T01:26:41.499Z,100244.66
2018-11-11T01:29:09.231Z,100246.38
2018-11-11T01:31:37.002Z,100239.23
2018-11-11T01:34:04.830Z,100240.08
2018-11-11T01:36:32.557Z,100247.21
2018-11-11T01:39:00.288Z,100246.95
2018-11-11T01:41:28.067Z,100248.61
2018-11-11T01:43:55.796Z,100254.86
2018-11-11T01:46:23.554Z,100254.16
2018-11-11T01:48:51.286Z,100253.34
2018-11-11T01:51:19.022Z,100246.48
2018-11-11T01:53:46.757Z,100246.70
2018-11-11T01:56:14.496Z,100247.19
2018-11-11T01:58:42.242Z,100242.36
2018-11-11T02:01:09.981Z,100242.13
2018-11-11T02:03:37.769Z,100245.11
2018-11-11T02:06:05.570Z,100249.20
2018-11-11T02:08:33.310Z,100251.88
2018-11-11T02:11:01.058Z,100250.19
2018-11-11T02:13:28.786Z,100249.00
2018-11-11T02:15:56.548Z,100255.30
2018-11-11T02:18:24.278Z,100253.81
2018-11-11T02:20:52.022Z,100252.47
2018-11-11T02:23:19.869Z,100258.99
2018-11-11T02:25:47.583Z,100264.27
2018-11-11T02:28:15.300Z,100266.45
2018-11-11T02:30:43.037Z,100266.26
2018-11-11T02:33:10.765Z,100269.77
2018-11-11T02:35:38.497Z,100266.83
2018-11-11T02:38:06.227Z,100267.34
2018-11-11T02:40:33.958Z,100262.14
2018-11-11T02:43:01.679Z,100264.63
2018-11-11T02:45:29.398Z,100259.57
2018-11-11T02:47:57.123Z,100261.62
2018-11-11T02:50:24.929Z,100260.95
2018-11-11T02:52:52.654Z,100259.86
2018-11-11T02:55:20.373Z,100263.83
2018-11-11T02:57:48.271Z,100263.63
2018-11-11T03:00:17.271Z,100262.92
2018-11-11T03:02:45.653Z,100269.78
2018-11-11T03:05:14.478Z,100259.95
2018-11-11T03:07:43.223Z,100269.16
2018-11-11T03:10:11.913Z,100265.90
2018-11-11T03:12:39.971Z,100268.91
2018-11-11T03:15:08.953Z,100258.48
2018-11-11T03:17:36.930Z,100263.22
2018-11-11T03:20:05.447Z,100272.07
2018-11-11T03:22:33.276Z,100267.95
2018-11-11T03:25:01.039Z,100268.63
2018-11-11T03:27:28.776Z,100269.84
2018-11-11T03:29:56.671Z,100272.05
2018-11-11T03:32:24.394Z,100274.27
2018-11-11T03:34:52.203Z,100281.20
2018-11-11T03:37:19.970Z,100279.69
2018-11-11T03:39:47.774Z,100271.98
2018-11-11T03:42:15.526Z,100280.56
2018-11-11T03:44:43.258Z,100274.22
2018-11-11T03:47:10.983Z,100273.43
2018-11-11T03:49:38.705Z,100271.14
2018-11-11T03:52:06.512Z,100277.85
2018-11-11T03:54:34.509Z,100277.61
2018-11-11T03:57:02.386Z,100272.08
2018-11-11T03:59:30.119Z,100272.86
2018-11-11T04:01:57.894Z,100282.78
2018-11-11T04:04:25.635Z,100276.15
2018-11-11T04:06:53.389Z,100281.99
2018-11-11T04:09:21.128Z,100281.03
2018-11-11T04:11:48.854Z,100286.05
2018-11-11T04:14:16.618Z,100282.24
2018-11-11T04:16:44.346Z,100287.39
2018-11-11T04:19:12.058Z,100284.78
2018-11-11T04:21:39.806Z,100288.39
2018-11-11T04:24:08.039Z,100286.73
2018-11-11T04:26:35.781Z,100286.38
2018-11-11T04:29:03.655Z,100291.43
2018-11-11T04:31:31.406Z,100296.17
2018-11-11T04:33:59.135Z,100296.25
2018-11-11T04:36:26.862Z,100294.73
2018-11-11T04:38:54.682Z,100293.39
2018-11-11T04:41:22.426Z,100296.62
2018-11-11T04:43:50.234Z,100298.61
2018-11-11T04:46:17.978Z,100300.48
2018-11-11T04:48:45.983Z,100300.42
2018-11-11T04:51:13.712Z,100306.45
2018-11-11T04:53:41.434Z,100310.30
2018-11-11T04:56:09.158Z,100307.92
2018-11-11T04:58:36.876Z,100305.75
2018-11-11T05:01:04.707Z,100311.95
2018-11-11T05:03:32.435Z,100316.70
2018-11-11T05:06:00.151Z,100316.25
2018-11-11T05:08:27.867Z,100318.25
2018-11-11T05:10:55.606Z,100320.28
2018-11-11T05:13:23.314Z,100329.21
2018-11-11T05:15:51.045Z,100326.87
2018-11-11T05:18:18.776Z,100335.50
2018-11-11T05:20:46.498Z,100333.91
2018-11-11T05:23:14.216Z,100348.48
2018-11-11T05:25:41.938Z,100351.71
2018-11-11T05:28:09.662Z,100357.67
2018-11-11T05:30:37.389Z,100365.19
2018-11-11T05:33:05.203Z,100364.39
2018-11-11T05:35:32.938Z,100366.45
2018-11-11T05:38:00.662Z,100371.20
2018-11-11T05:40:28.389Z,100373.42
2018-11-11T05:42:56.134Z,100372.95
2018-11-11T05:45:23.870Z,100380.48
2018-11-11T05:47:51.615Z,100375.70
2018-11-11T05:50:19.351Z,100384.14
2018-11-11T05:52:47.157Z,100383.77
2018-11-11T05:55:14.951Z,100382.55
2018-11-11T05:57:42.693Z,100385.47
2018-11-11T06:00:12.060Z,100384.09
2018-11-11T06:02:39.924Z,100393.13
2018-11-11T06:05:09.652Z,100395.22
2018-11-11T06:07:37.626Z,100395.01
2018-11-11T06:10:06.679Z,100396.11
2018-11-11T06:12:34.398Z,100397.55
2018-11-11T06:15:02.133Z,100397.23
2018-11-11T06:17:29.865Z,100398.02
2018-11-11T06:19:57.616Z,100406.75
2018-11-11T06:22:25.346Z,100409.67
2018-11-11T06:24:53.075Z,100411.19
2018-11-11T06:27:20.877Z,100407.11
2018-11-11T06:29:48.591Z,100408.00
2018-11-11T06:32:16.315Z,100410.60
2018-11-11T06:34:44.062Z,100421.66
2018-11-11T06:37:11.794Z,100423.84
2018-11-11T06:39:39.516Z,100421.69
2018-11-11T06:42:07.242Z,100426.78
2018-11-11T06:44:34.970Z,100425.53
2018-11-11T06:47:02.703Z,100431.17
2018-11-11T06:49:30.443Z,100427.03
2018-11-11T06:51:58.175Z,100430.17
2018-11-11T06:54:25.890Z,100432.34
2018-11-11T06:56:53.847Z,100437.42
2018-11-11T06:59:21.569Z,100440.77
2018-11-11T07:01:49.296Z,100445.62
2018-11-11T07:04:17.025Z,100444.31
2018-11-11T07:06:44.745Z,100441.78
2018-11-11T07:09:12.499Z,100434.02
2018-11-11T07:11:40.232Z,100436.83
2018-11-11T07:14:07.972Z,100436.97
2018-11-11T07:16:35.739Z,100438.31
2018-11-11T07:19:03.503Z,100444.66
2018-11-11T07:21:31.218Z,100446.61
2018-11-11T07:23:59.029Z,100445.58
2018-11-11T07:26:27.414Z,100446.80
2018-11-11T07:28:55.151Z,100451.86
2018-11-11T07:31:22.894Z,100448.32
2018-11-11T07:33:50.638Z,100447.39
2018-11-11T07:36:18.354Z,100450.33
2018-11-11T07:38:46.095Z,100452.81
2018-11-11T07:41:13.838Z,100452.66
2018-11-11T07:43:41.590Z,100458.86
2018-11-11T07:46:09.314Z,100461.12
2018-11-11T07:48:37.048Z,100460.33
2018-11-11T07:51:04.927Z,100456.48
2018-11-11T07:53:32.676Z,100464.02
2018-11-11T07:56:00.399Z,100464.72
2018-11-11T07:58:28.193Z,100464.44
2018-11-11T08:00:55.947Z,100467.75
2018-11-11T08:03:23.653Z,100470.56
2018-11-11T08:05:51.399Z,100473.39
2018-11-11T08:08:19.226Z,100476.52
2018-11-11T08:10:58.337Z,100478.97
2018-11-11T08:13:26.106Z,100477.23
2018-11-11T08:15:53.842Z,100474.36
2018-11-11T08:18:21.602Z,100477.99
2018-11-11T08:20:49.362Z,100481.69
2018-11-11T08:23:17.080Z,100478.50
2018-11-11T08:25:44.812Z,100477.84
2018-11-11T08:28:12.578Z,100480.87
2018-11-11T08:30:40.311Z,100478.86
2018-11-11T08:33:08.058Z,100481.20
2018-11-11T08:35:35.801Z,100482.36
2018-11-11T08:38:03.594Z,100482.77
2018-11-11T08:40:31.388Z,100482.13
2018-11-11T08:42:59.087Z,100479.61
2018-11-11T08:45:26.875Z,100476.23
2018-11-11T08:47:54.586Z,100468.63
2018-11-11T08:50:22.326Z,100484.25
2018-11-11T08:52:50.918Z,100473.91
2018-11-11T08:55:18.662Z,100479.02
2018-11-11T08:57:46.461Z,100482.86
2018-11-11T09:00:14.954Z,100480.64
2018-11-11T09:02:42.678Z,100477.63
2018-11-11T09:05:10.447Z,100475.56
2018-11-11T09:07:38.520Z,100479.56
2018-11-11T09:10:09.094Z,100478.66
2018-11-11T09:15:29.419Z,100479.89
2018-11-11T09:17:57.142Z,100478.39
2018-11-11T09:20:25.591Z,100478.47
2018-11-11T09:22:53.340Z,100474.48
2018-11-11T09:25:21.222Z,100480.98
2018-11-11T09:27:48.918Z,100473.27
2018-11-11T09:30:16.725Z,100477.03
2018-11-11T09:32:44.503Z,100478.16
2018-11-11T09:35:12.290Z,100475.86
2018-11-11T09:37:40.461Z,100468.06
2018-11-11T09:40:09.270Z,100462.80
2018-11-11T09:42:37.118Z,100454.27
2018-11-11T09:45:07.403Z,100456.21
2018-11-11T09:47:35.254Z,100453.38
2018-11-11T09:50:03.063Z,100445.24
2018-11-11T09:52:30.784Z,100451.52
2018-11-11T09:54:58.523Z,100449.02
2018-11-11T09:57:26.350Z,100455.66
2018-11-11T09:59:54.160Z,100446.71
2018-11-11T10:02:21.927Z,100446.97
2018-11-11T10:04:54.223Z,100451.18
2018-11-11T10:07:28.488Z,100445.78
2018-11-11T10:10:31.573Z,100446.70
2018-11-11T10:13:03.756Z,100438.13
2018-11-11T10:15:36.891Z,100432.93
2018-11-11T10:18:12.887Z,100447.19
2018-11-11T10:20:52.487Z,100444.00
2018-11-11T10:23:27.975Z,100445.44
2018-11-11T10:26:08.014Z,100446.41
2018-11-11T10:30:46.457Z,100444.16
2018-11-11T10:33:33.034Z,100436.23
2018-11-11T10:37:04.975Z,100434.47
2018-11-11T10:39:42.443Z,100434.92
2018-11-11T10:42:15.727Z,100430.17
2018-11-11T10:44:52.482Z,100435.41
2018-11-11T10:47:55.042Z,100429.36
2018-11-11T10:50:27.940Z,100426.45
2018-11-11T10:52:55.691Z,100423.82
2018-11-11T10:55:23.467Z,100423.59
2018-11-11T10:57:51.223Z,100420.94
2018-11-11T11:00:24.390Z,100423.13
2018-11-11T11:02:54.158Z,100418.39
2018-11-11T11:05:21.910Z,100430.88
2018-11-11T11:07:49.643Z,100421.11
2018-11-11T11:10:17.418Z,100420.42
2018-11-11T11:12:45.418Z,100414.98
2018-11-11T11:15:13.142Z,100415.13
2018-11-11T11:17:40.888Z,100414.84
2018-11-11T11:20:08.689Z,100413.02
2018-11-11T11:22:36.439Z,100410.00
2018-11-11T11:25:05.040Z,100414.42
2018-11-11T11:27:32.795Z,100404.48
2018-11-11T11:30:00.533Z,100404.63
2018-11-11T11:32:28.381Z,100396.72
2018-11-11T11:34:56.117Z,100399.11
2018-11-11T11:37:23.860Z,100390.78
2018-11-11T11:39:51.599Z,100386.20
2018-11-11T11:42:19.343Z,100383.37
2018-11-11T11:44:47.110Z,100385.09
2018-11-11T11:47:14.843Z,100386.59
2018-11-11T11:49:42.600Z,100383.40
2018-11-11T11:52:10.378Z,100380.05
2018-11-11T11:54:38.094Z,100383.46
2018-11-11T11:57:05.897Z,100383.77
2018-11-11T11:59:33.677Z,100383.77
2018-11-11T12:02:01.439Z,100381.38
2018-11-11T12:04:29.167Z,100379.89
2018-11-11T12:06:56.894Z,100377.56
2018-11-11T12:09:24.659Z,100374.42
2018-11-11T12:11:52.423Z,100379.41
2018-11-11T12:14:20.173Z,100383.69
2018-11-11T12:16:48.121Z,100384.85
2018-11-11T12:19:15.786Z,100377.58
2018-11-11T12:21:43.530Z,100377.64
2018-11-11T12:24:11.259Z,100377.42
2018-11-11T12:26:39.006Z,100379.51
2018-11-11T12:29:06.714Z,100379.58
2018-11-11T12:31:34.447Z,100377.42
2018-11-11T12:34:02.183Z,100379.81
2018-11-11T12:36:29.898Z,100383.90
2018-11-11T12:38:57.707Z,100380.38
2018-11-11T12:41:25.411Z,100391.17
2018-11-11T12:43:53.130Z,100391.17
2018-11-11T12:46:20.873Z,100388.92
2018-11-11T12:48:48.696Z,100391.27
2018-11-11T12:51:16.438Z,100391.48
2018-11-11T12:53:44.143Z,100392.48
2018-11-11T12:56:11.866Z,100392.89
2018-11-11T12:58:39.577Z,100398.23
2018-11-11T13:01:07.318Z,100397.77
2018-11-11T13:03:35.036Z,100392.59
2018-11-11T13:06:02.789Z,100396.09
2018-11-11T13:08:30.510Z,100393.38
2018-11-11T13:10:58.255Z,100389.05
2018-11-11T13:13:25.975Z,100389.41
2018-11-11T13:15:53.698Z,100384.86
2018-11-11T13:18:21.415Z,100388.72
2018-11-11T13:20:49.172Z,100382.86
2018-11-11T13:23:16.906Z,100385.02
2018-11-11T13:25:44.651Z,100383.99
2018-11-11T13:28:12.365Z,100393.27
2018-11-11T13:30:40.103Z,100389.55
2018-11-11T13:33:07.834Z,100392.03
2018-11-11T13:35:35.566Z,100393.66
2018-11-11T13:38:03.403Z,100388.63
2018-11-11T13:40:31.076Z,100391.52
2018-11-11T13:42:58.806Z,100390.81
2018-11-11T13:45:26.543Z,100387.10
2018-11-11T13:47:54.278Z,100395.05
2018-11-11T13:50:24.225Z,100391.62
2018-11-11T13:52:51.935Z,100398.76
2018-11-11T13:55:20.515Z,100396.27
2018-11-11T13:57:48.799Z,100393.21
2018-11-11T14:00:26.110Z,100400.69
2018-11-11T14:02:53.864Z,100404.36
2018-11-11T14:05:21.647Z,100402.22
2018-11-11T14:07:49.386Z,100399.52
2018-11-11T14:10:17.433Z,100405.42
2018-11-11T14:12:45.189Z,100410.00
2018-11-11T14:15:19.120Z,100414.03
2018-11-11T14:17:47.383Z,100408.69
2018-11-11T14:20:16.269Z,100409.09
2018-11-11T14:22:45.085Z,100408.56
2018-11-11T14:25:16.376Z,100405.00
2018-11-11T14:27:44.443Z,100402.05
2018-11-11T14:30:14.894Z,100402.26
2018-11-11T14:32:42.755Z,100394.97
2018-11-11T14:35:11.265Z,100396.23
2018-11-11T14:37:39.035Z,100394.75
2018-11-11T14:40:09.638Z,100395.61
2018-11-11T14:42:37.454Z,100408.89
2018-11-11T14:45:05.799Z,100408.45
2018-11-11T14:47:33.546Z,100409.06
2018-11-11T14:50:01.323Z,100402.33
2018-11-11T14:52:29.102Z,100411.02
2018-11-11T14:54:56.785Z,100411.65
2018-11-11T14:57:24.503Z,100412.90
2018-11-11T14:59:52.232Z,100410.33
2018-11-11T15:02:20.022Z,100411.40
2018-11-11T15:04:47.731Z,100408.99
2018-11-11T15:07:15.486Z,100406.55
2018-11-11T15:09:47.131Z,100412.38
2018-11-11T15:12:14.923Z,100404.59
2018-11-11T15:14:42.737Z,100410.06
2018-11-11T15:17:10.502Z,100414.16
2018-11-11T15:19:38.495Z,100412.38
2018-11-11T15:22:06.024Z,100417.11
2018-11-11T15:24:34.700Z,100414.25
2018-11-11T15:27:02.431Z,100416.11
2018-11-11T15:29:30.187Z,100419.34
2018-11-11T15:31:57.919Z,100418.25
2018-11-11T15:34:25.654Z,100424.25
2018-11-11T15:36:53.411Z,100423.39
2018-11-11T15:39:21.168Z,100435.16
2018-11-11T15:41:48.901Z,100441.30
2018-11-11T15:44:16.655Z,100444.33
2018-11-11T15:46:44.391Z,100438.38
2018-11-11T15:49:12.129Z,100445.30
2018-11-11T15:51:39.883Z,100441.89
2018-11-11T15:54:07.640Z,100442.88
2018-11-11T15:56:35.366Z,100440.42
2018-11-11T15:59:03.100Z,100447.88
2018-11-11T16:01:30.958Z,100441.30
2018-11-11T16:03:58.695Z,100450.19
2018-11-11T16:06:29.167Z,100461.86
2018-11-11T16:08:57.803Z,100457.11
2018-11-11T16:11:25.650Z,100460.86
2018-11-11T16:13:53.610Z,100459.22
2018-11-11T16:16:21.497Z,100463.84
2018-11-11T16:18:49.285Z,100461.14
2018-11-11T16:21:17.050Z,100467.97
2018-11-11T16:23:44.971Z,100470.48
2018-11-11T16:26:12.740Z,100471.67
2018-11-11T16:28:40.519Z,100475.08
2018-11-11T16:31:08.292Z,100474.63
2018-11-11T16:33:36.090Z,100484.12
2018-11-11T16:36:03.968Z,100489.09
2018-11-11T16:38:31.743Z,100494.03
2018-11-11T16:40:59.643Z,100491.05
2018-11-11T16:43:27.358Z,100496.28
2018-11-11T16:45:55.154Z,100501.75
2018-11-11T16:48:23.054Z,100499.06
2018-11-11T16:50:50.926Z,100503.13
2018-11-11T16:53:18.694Z,100507.16
2018-11-11T16:55:46.451Z,100511.76
2018-11-11T16:58:14.408Z,100504.16
2018-11-11T17:00:42.168Z,100515.60
2018-11-11T17:03:09.987Z,100523.80
2018-11-11T17:05:38.434Z,100527.75
2018-11-11T17:08:08.924Z,100526.44
2018-11-11T17:16:58.853Z,100535.52
2018-11-11T17:19:26.690Z,100542.83
2018-11-11T17:21:54.800Z,100543.53
2018-11-11T17:24:22.423Z,100539.31
2018-11-11T17:26:50.499Z,100545.27
2018-11-11T17:29:18.559Z,100544.05
2018-11-11T17:31:46.906Z,100549.08
2018-11-11T17:34:14.764Z,100550.28
2018-11-11T17:36:42.807Z,100552.84
2018-11-11T17:39:11.425Z,100554.26
2018-11-11T17:41:39.401Z,100558.25
2018-11-11T17:44:07.564Z,100565.21
2018-11-11T17:46:35.657Z,100562.25
2018-11-11T17:49:03.682Z,100562.06
2018-11-11T17:51:31.672Z,100568.98
2018-11-11T17:53:59.634Z,100569.75
2018-11-11T17:56:27.465Z,100566.27
2018-11-11T17:58:55.411Z,100570.59
2018-11-11T18:01:23.494Z,100577.69
2018-11-11T18:03:51.468Z,100581.60
2018-11-11T18:06:19.498Z,100582.72
2018-11-11T18:08:48.122Z,100584.79
2018-11-11T18:11:16.118Z,100585.99
2018-11-11T18:13:45.907Z,100582.41
2018-11-11T18:16:14.411Z,100585.03
2018-11-11T18:18:42.607Z,100586.86
2018-11-11T18:21:11.162Z,100588.59
2018-11-11T18:23:38.998Z,100589.73
2018-11-11T18:26:07.019Z,100588.69
2018-11-11T18:28:34.953Z,100593.52
2018-11-11T18:31:02.671Z,100591.30
2018-11-11T18:33:30.922Z,100594.22
2018-11-11T18:35:58.806Z,100593.47
2018-11-11T18:38:26.533Z,100597.33
2018-11-11T18:40:54.257Z,100600.61
2018-11-11T18:43:22.042Z,100595.88
2018-11-11T18:45:50.018Z,100598.64
2018-11-11T18:48:17.956Z,100603.47
2018-11-11T18:50:45.808Z,100604.34
2018-11-11T18:53:13.593Z,100609.76
2018-11-11T18:55:41.374Z,100615.66
2018-11-11T18:58:09.209Z,100621.34
2018-11-11T19:00:36.937Z,100628.10
2018-11-11T19:03:04.787Z,100616.06
2018-11-11T19:05:32.746Z,100622.20
2018-11-11T19:08:00.476Z,100625.04
2018-11-11T19:10:29.707Z,100625.19
2018-11-11T19:12:59.222Z,100628.03
2018-11-11T19:15:26.987Z,100622.66
2018-11-11T19:17:54.779Z,100626.50
2018-11-11T19:20:24.181Z,100626.48
2018-11-11T19:22:51.895Z,100629.92
2018-11-11T19:25:20.859Z,100627.42
2018-11-11T19:27:49.703Z,100631.30
2018-11-11T19:30:18.623Z,100632.88
2018-11-11T19:32:47.842Z,100635.37
2018-11-11T19:35:15.939Z,100640.19
2018-11-11T19:37:44.697Z,100643.31
2018-11-11T19:40:14.487Z,100649.25
2018-11-11T19:42:42.698Z,100647.25
2018-11-11T19:45:11.792Z,100649.27
2018-11-11T19:47:40.112Z,100651.98
2018-11-11T19:50:09.520Z,100652.38
2018-11-11T19:52:37.426Z,100652.52
2018-11-11T19:55:06.122Z,100650.53
2018-11-11T19:57:33.839Z,100647.86
2018-11-11T20:00:01.935Z,100652.24
2018-11-11T20:02:29.775Z,100657.26
2018-11-11T20:04:57.482Z,100653.68
2018-11-11T20:07:25.235Z,100654.86
2018-11-11T20:09:52.999Z,100648.69
2018-11-11T20:12:20.728Z,100650.63
2018-11-11T20:14:48.513Z,100658.18
2018-11-11T20:17:16.266Z,100658.48
2018-11-11T20:19:44.367Z,100665.25
2018-11-11T20:22:12.103Z,100672.47
2018-11-11T20:24:39.849Z,100670.34
2018-11-11T20:27:07.602Z,100673.34
2018-11-11T20:29:35.416Z,100667.80
2018-11-11T20:32:10.810Z,100666.48
2018-11-11T20:34:41.365Z,100675.22
2018-11-11T20:37:09.143Z,100674.73
2018-11-11T20:39:36.878Z,100672.96
2018-11-11T20:42:09.831Z,100671.03
2018-11-11T20:44:38.588Z,100671.78
2018-11-11T20:47:13.240Z,100676.89
2018-11-11T20:49:41.111Z,100684.50
2018-11-11T20:52:08.898Z,100684.25
2018-11-11T20:54:36.606Z,100689.34
2018-11-11T20:57:04.349Z,100688.91
2018-11-11T20:59:32.166Z,100692.80
2018-11-11T21:01:59.910Z,100689.55
2018-11-11T21:04:27.638Z,100683.80
2018-11-11T21:06:55.682Z,100685.62
2018-11-11T21:09:23.442Z,100685.73
2018-11-11T21:11:51.188Z,100689.48
2018-11-11T21:14:18.926Z,100680.13
2018-11-11T21:16:46.994Z,100680.27
2018-11-11T21:19:14.885Z,100686.12
2018-11-11T21:21:43.403Z,100693.53
2018-11-11T21:24:11.141Z,100689.66
2018-11-11T21:26:38.875Z,100690.27
2018-11-11T21:29:07.575Z,100695.71
2018-11-11T21:31:35.430Z,100692.61
2018-11-11T21:34:03.543Z,100692.81
2018-11-11T21:36:31.261Z,100696.42
2018-11-11T21:38:59.010Z,100699.64
2018-11-11T21:41:26.793Z,100699.82
2018-11-11T21:43:54.517Z,100708.82
2018-11-11T21:46:22.683Z,100700.48
2018-11-11T21:48:50.486Z,100707.33
2018-11-11T21:51:18.218Z,100711.82
2018-11-11T21:53:45.977Z,100718.53
2018-11-11T21:56:13.706Z,100712.23
2018-11-11T21:58:41.458Z,100710.50
2018-11-11T22:01:09.190Z,100710.78
2018-11-11T22:03:36.963Z,100702.61
2018-11-11T22:06:04.967Z,100703.53
2018-11-11T22:08:32.712Z,100700.38
2018-11-11T22:11:00.555Z,100697.73
2018-11-11T22:13:28.302Z,100698.64
2018-11-11T22:15:56.188Z,100702.25
2018-11-11T22:18:23.818Z,100707.80
2018-11-11T22:20:51.534Z,100703.66
2018-11-11T22:23:19.316Z,100702.36
2018-11-11T22:25:47.043Z,100701.77
2018-11-11T22:28:14.815Z,100706.67
2018-11-11T22:30:42.563Z,100703.14
2018-11-11T22:33:10.292Z,100701.20
2018-11-11T22:35:38.015Z,100701.41
2018-11-11T22:38:05.866Z,100703.11
2018-11-11T22:40:33.649Z,100697.20
2018-11-11T22:43:01.416Z,100707.89
2018-11-11T22:45:29.146Z,100710.95
2018-11-11T22:47:56.870Z,100709.56
2018-11-11T22:50:24.886Z,100709.10
2018-11-11T22:52:52.706Z,100708.83
2018-11-11T22:55:20.474Z,100712.98
2018-11-11T22:57:48.462Z,100709.95
2018-11-11T23:00:21.982Z,100711.11
2018-11-11T23:02:50.374Z,100705.80
2018-11-11T23:05:19.144Z,100710.45
2018-11-11T23:07:46.918Z,100706.49
2018-11-11T23:10:14.833Z,100711.86
2018-11-11T23:12:42.617Z,100712.88
2018-11-11T23:15:11.695Z,100712.45
2018-11-11T23:17:39.418Z,100714.63
2018-11-11T23:20:09.065Z,100716.53
2018-11-11T23:22:36.838Z,100717.45
2018-11-11T23:25:05.050Z,100718.13
2018-11-11T23:27:32.786Z,100725.89
2018-11-11T23:30:00.787Z,100718.84
2018-11-11T23:32:28.507Z,100724.06
2018-11-11T23:34:56.230Z,100727.55
2018-11-11T23:37:23.998Z,100727.25
2018-11-11T23:39:51.721Z,100726.42
2018-11-11T23:42:19.436Z,100728.04
2018-11-11T23:44:47.162Z,100727.59
2018-11-11T23:47:14.899Z,100730.30
2018-11-11T23:49:42.626Z,100727.37
2018-11-11T23:52:10.372Z,100729.47
2018-11-11T23:54:38.441Z,100729.13
2018-11-11T23:57:06.184Z,100733.92
2018-11-11T23:59:33.906Z,100736.23
